Terminal Aerodrome Forecast
Issued by NWS Shreveport, LA

Home | Current Version | Previous Version | Text Only | Print | Product List | Glossary On
Versions: 1 2 3 4 5 6 7 8 9 10 11 12 13 14 15 16 17 18
000
FTUS44 KSHV 282340
TAFELD
TAF
KELD 282340Z 2900/2924 00000KT P6SM SKC
     FM290300 VRB03KT 4SM BR SKC
      TEMPO 2907/2911 1SM BR BKN005
     FM291400 28005KT P6SM SCT020
     FM291800 28005KT P6SM BKN050
     FM292100 33006KT P6SM FEW250=

USA.gov is the U.S. government's official web portal to all federal, state and local government web resources and services.